sensor_id;sensor_type;location;lat;lon;timestamp;pressure;altitude;pressure_sealevel;temperature;humidity
29197;BME280;62796;42.654;23.316;2024-01-11T00:00:42;95524.91;;;-0.20;50.15
29197;BME280;62796;42.654;23.316;2024-01-11T00:03:07;95524.13;;;-0.24;49.77
29197;BME280;62796;42.654;23.316;2024-01-11T00:05:33;95523.34;;;-0.21;49.66
29197;BME280;62796;42.654;23.316;2024-01-11T00:07:58;95526.47;;;-0.19;50.06
29197;BME280;62796;42.654;23.316;2024-01-11T00:10:24;95510.91;;;-0.22;49.98
29197;BME280;62796;42.654;23.316;2024-01-11T00:12:49;95503.13;;;-0.20;49.99
29197;BME280;62796;42.654;23.316;2024-01-11T00:15:14;95489.13;;;-0.32;49.69
29197;BME280;62796;42.654;23.316;2024-01-11T00:17:40;95507.81;;;-0.27;50.13
29197;BME280;62796;42.654;23.316;2024-01-11T00:20:06;95510.13;;;-0.33;50.04
29197;BME280;62796;42.654;23.316;2024-01-11T00:22:32;95505.47;;;-0.36;50.06
29197;BME280;62796;42.654;23.316;2024-01-11T00:24:57;95503.94;;;-0.33;50.07
29197;BME280;62796;42.654;23.316;2024-01-11T00:27:23;95514.00;;;-0.27;50.19
29197;BME280;62796;42.654;23.316;2024-01-11T00:29:48;95501.59;;;-0.24;49.73
29197;BME280;62796;42.654;23.316;2024-01-11T00:32:14;95491.09;;;-0.36;50.20
29197;BME280;62796;42.654;23.316;2024-01-11T00:34:39;95500.81;;;-0.35;50.68
29197;BME280;62796;42.654;23.316;2024-01-11T00:37:05;95496.19;;;-0.45;50.41
29197;BME280;62796;42.654;23.316;2024-01-11T00:39:30;95500.81;;;-0.35;50.15
29197;BME280;62796;42.654;23.316;2024-01-11T00:41:56;95498.50;;;-0.33;49.97
29197;BME280;62796;42.654;23.316;2024-01-11T00:44:21;95493.03;;;-0.33;49.55
29197;BME280;62796;42.654;23.316;2024-01-11T00:46:46;95491.50;;;-0.41;49.73
29197;BME280;62796;42.654;23.316;2024-01-11T00:49:12;95491.47;;;-0.34;49.44
29197;BME280;62796;42.654;23.316;2024-01-11T00:51:37;95489.91;;;-0.28;49.40
29197;BME280;62796;42.654;23.316;2024-01-11T00:54:03;95496.94;;;-0.27;49.24
29197;BME280;62796;42.654;23.316;2024-01-11T00:56:28;95480.22;;;-0.43;49.38
29197;BME280;62796;42.654;23.316;2024-01-11T00:58:53;95479.06;;;-0.42;49.26
29197;BME280;62796;42.654;23.316;2024-01-11T01:01:19;95475.19;;;-0.45;49.60
29197;BME280;62796;42.654;23.316;2024-01-11T01:03:45;95480.59;;;-0.41;49.53
29197;BME280;62796;42.654;23.316;2024-01-11T01:06:10;95472.84;;;-0.39;49.64
29197;BME280;62796;42.654;23.316;2024-01-11T01:08:35;95470.91;;;-0.42;49.81
29197;BME280;62796;42.654;23.316;2024-01-11T01:11:01;95492.28;;;-0.44;49.51
29197;BME280;62796;42.654;23.316;2024-01-11T01:13:26;95475.19;;;-0.48;49.46
29197;BME280;62796;42.654;23.316;2024-01-11T01:15:52;95476.72;;;-0.40;49.79
29197;BME280;62796;42.654;23.316;2024-01-11T01:18:17;95480.97;;;-0.32;49.37
29197;BME280;62796;42.654;23.316;2024-01-11T01:20:42;95471.28;;;-0.37;49.31
29197;BME280;62796;42.654;23.316;2024-01-11T01:23:08;95461.56;;;-0.45;49.19
29197;BME280;62796;42.654;23.316;2024-01-11T01:25:33;95479.06;;;-0.39;49.12
29197;BME280;62796;42.654;23.316;2024-01-11T01:27:59;95462.38;;;-0.51;49.54
29197;BME280;62796;42.654;23.316;2024-01-11T01:30:26;95462.75;;;-0.49;49.38
29197;BME280;62796;42.654;23.316;2024-01-11T01:32:51;95479.84;;;-0.42;49.35
29197;BME280;62796;42.654;23.316;2024-01-11T01:35:17;95467.41;;;-0.53;49.81
29197;BME280;62796;42.654;23.316;2024-01-11T01:37:42;95475.56;;;-0.53;50.27
29197;BME280;62796;42.654;23.316;2024-01-11T01:40:08;95472.09;;;-0.58;49.93
29197;BME280;62796;42.654;23.316;2024-01-11T01:42:34;95461.59;;;-0.63;50.30
29197;BME280;62796;42.654;23.316;2024-01-11T01:44:59;95450.31;;;-0.61;49.94
29197;BME280;62796;42.654;23.316;2024-01-11T01:47:26;95446.41;;;-0.57;49.91
29197;BME280;62796;42.654;23.316;2024-01-11T01:49:52;95450.69;;;-0.63;50.06
29197;BME280;62796;42.654;23.316;2024-01-11T01:52:19;95429.38;;;-0.75;50.17
29197;BME280;62796;42.654;23.316;2024-01-11T01:54:44;95441.00;;;-0.64;49.98
29197;BME280;62796;42.654;23.316;2024-01-11T01:57:11;95421.59;;;-0.76;50.34
29197;BME280;62796;42.654;23.316;2024-01-11T01:59:38;95430.50;;;-0.65;50.70
29197;BME280;62796;42.654;23.316;2024-01-11T02:02:05;95434.00;;;-0.61;49.91
29197;BME280;62796;42.654;23.316;2024-01-11T02:04:31;95430.88;;;-0.60;50.35
29197;BME280;62796;42.654;23.316;2024-01-11T02:06:57;95425.47;;;-0.67;50.07
29197;BME280;62796;42.654;23.316;2024-01-11T02:09:24;95440.63;;;-0.69;50.59
29197;BME280;62796;42.654;23.316;2024-01-11T02:11:51;95415.00;;;-0.86;50.33
29197;BME280;62796;42.654;23.316;2024-01-11T02:14:17;95436.72;;;-0.72;50.34
29197;BME280;62796;42.654;23.316;2024-01-11T02:16:42;95426.25;;;-0.77;51.07
29197;BME280;62796;42.654;23.316;2024-01-11T02:19:12;95424.69;;;-0.74;52.07
29197;BME280;62796;42.654;23.316;2024-01-11T02:21:41;95435.56;;;-0.74;52.35
29197;BME280;62796;42.654;23.316;2024-01-11T02:24:07;95434.00;;;-0.72;51.89
29197;BME280;62796;42.654;23.316;2024-01-11T02:26:33;95424.69;;;-0.71;50.88
29197;BME280;62796;42.654;23.316;2024-01-11T02:28:59;95428.56;;;-0.72;50.76
29197;BME280;62796;42.654;23.316;2024-01-11T02:31:25;95427.81;;;-0.72;49.99
29197;BME280;62796;42.654;23.316;2024-01-11T02:33:52;95434.78;;;-0.68;49.37
29197;BME280;62796;42.654;23.316;2024-01-11T02:36:18;95416.16;;;-0.80;49.92
29197;BME280;62796;42.654;23.316;2024-01-11T02:38:45;95423.94;;;-0.75;49.91
29197;BME280;62796;42.654;23.316;2024-01-11T02:41:11;95421.59;;;-0.73;49.74
29197;BME280;62796;42.654;23.316;2024-01-11T02:43:36;95417.72;;;-0.75;50.10
29197;BME280;62796;42.654;23.316;2024-01-11T02:46:03;95428.59;;;-0.82;50.05
29197;BME280;62796;42.654;23.316;2024-01-11T02:48:29;95413.06;;;-0.85;49.70
29197;BME280;62796;42.654;23.316;2024-01-11T02:50:55;95415.41;;;-0.84;49.64
29197;BME280;62796;42.654;23.316;2024-01-11T02:53:21;95415.41;;;-0.84;49.37
29197;BME280;62796;42.654;23.316;2024-01-11T02:55:46;95405.31;;;-0.87;49.72
29197;BME280;62796;42.654;23.316;2024-01-11T02:58:12;95415.41;;;-0.84;49.33
29197;BME280;62796;42.654;23.316;2024-01-11T03:00:37;95416.19;;;-0.87;49.16
29197;BME280;62796;42.654;23.316;2024-01-11T03:03:03;95419.69;;;-0.90;49.41
29197;BME280;62796;42.654;23.316;2024-01-11T03:05:28;95408.81;;;-0.90;49.34
29197;BME280;62796;42.654;23.316;2024-01-11T03:07:54;95412.31;;;-0.93;49.66
29197;BME280;62796;42.654;23.316;2024-01-11T03:10:19;95413.84;;;-0.92;49.50
29197;BME280;62796;42.654;23.316;2024-01-11T03:12:44;95401.44;;;-0.93;49.60
29197;BME280;62796;42.654;23.316;2024-01-11T03:15:10;95404.53;;;-0.91;49.22
29197;BME280;62796;42.654;23.316;2024-01-11T03:17:35;95405.28;;;-0.94;49.68
29197;BME280;62796;42.654;23.316;2024-01-11T03:20:01;95400.25;;;-1.06;49.71
29197;BME280;62796;42.654;23.316;2024-01-11T03:22:28;95410.38;;;-0.96;49.37
29197;BME280;62796;42.654;23.316;2024-01-11T03:24:53;95412.31;;;-0.93;49.92
29197;BME280;62796;42.654;23.316;2024-01-11T03:27:19;95413.84;;;-0.88;49.51
29197;BME280;62796;42.654;23.316;2024-01-11T03:29:44;95410.75;;;-0.90;49.35
29197;BME280;62796;42.654;23.316;2024-01-11T03:32:10;95398.31;;;-1.02;49.72
29197;BME280;62796;42.654;23.316;2024-01-11T03:34:39;95407.25;;;-0.98;50.57
29197;BME280;62796;42.654;23.316;2024-01-11T03:37:04;95402.19;;;-1.10;50.17
29197;BME280;62796;42.654;23.316;2024-01-11T03:39:29;95415.41;;;-1.05;49.88
29197;BME280;62796;42.654;23.316;2024-01-11T03:41:55;95403.34;;;-1.04;49.96
29197;BME280;62796;42.654;23.316;2024-01-11T03:44:20;95400.63;;;-1.04;50.09
29197;BME280;62796;42.654;23.316;2024-01-11T03:46:46;95409.97;;;-1.05;49.86
29197;BME280;62796;42.654;23.316;2024-01-11T03:49:11;95392.09;;;-1.13;49.66
29197;BME280;62796;42.654;23.316;2024-01-11T03:51:37;95403.75;;;-1.09;49.75
29197;BME280;62796;42.654;23.316;2024-01-11T03:54:02;95405.31;;;-1.12;49.38
29197;BME280;62796;42.654;23.316;2024-01-11T03:56:28;95393.28;;;-1.18;49.71
29197;BME280;62796;42.654;23.316;2024-01-11T03:58:53;95396.00;;;-1.21;49.64
29197;BME280;62796;42.654;23.316;2024-01-11T04:01:18;95394.84;;;-1.27;49.51
29197;BME280;62796;42.654;23.316;2024-01-11T04:03:44;95383.59;;;-1.47;49.63
29197;BME280;62796;42.654;23.316;2024-01-11T04:06:19;95383.56;;;-1.43;50.33
29197;BME280;62796;42.654;23.316;2024-01-11T04:08:46;95395.22;;;-1.43;50.27
29197;BME280;62796;42.654;23.316;2024-01-11T04:11:11;95373.09;;;-1.52;50.07
29197;BME280;62796;42.654;23.316;2024-01-11T04:13:37;95374.25;;;-1.53;50.48
29197;BME280;62796;42.654;23.316;2024-01-11T04:16:05;95375.81;;;-1.48;50.18
29197;BME280;62796;42.654;23.316;2024-01-11T04:18:31;95381.25;;;-1.48;50.62
29197;BME280;62796;42.654;23.316;2024-01-11T04:20:57;95376.19;;;-1.46;50.56
29197;BME280;62796;42.654;23.316;2024-01-11T04:23:22;95376.59;;;-1.44;50.03
29197;BME280;62796;42.654;23.316;2024-01-11T04:25:47;95376.19;;;-1.46;50.52
29197;BME280;62796;42.654;23.316;2024-01-11T04:28:13;95369.59;;;-1.45;49.92
29197;BME280;62796;42.654;23.316;2024-01-11T04:30:38;95374.25;;;-1.42;50.08
29197;BME280;62796;42.654;23.316;2024-01-11T04:33:04;95378.13;;;-1.40;49.67
29197;BME280;62796;42.654;23.316;2024-01-11T04:35:29;95369.22;;;-1.44;49.67
29197;BME280;62796;42.654;23.316;2024-01-11T04:37:54;95372.69;;;-1.40;49.96
29197;BME280;62796;42.654;23.316;2024-01-11T04:40:20;95378.91;;;-1.43;49.94
29197;BME280;62796;42.654;23.316;2024-01-11T04:42:45;95380.47;;;-1.45;50.60
29197;BME280;62796;42.654;23.316;2024-01-11T04:45:11;95374.25;;;-1.46;50.62
29197;BME280;62796;42.654;23.316;2024-01-11T04:47:36;95380.47;;;-1.38;50.12
29197;BME280;62796;42.654;23.316;2024-01-11T04:50:04;95378.13;;;-1.40;50.31
29197;BME280;62796;42.654;23.316;2024-01-11T04:52:29;95385.13;;;-1.35;50.21
29197;BME280;62796;42.654;23.316;2024-01-11T04:54:54;95390.56;;;-1.35;49.84
29197;BME280;62796;42.654;23.316;2024-01-11T04:57:20;95385.13;;;-1.35;50.30
29197;BME280;62796;42.654;23.316;2024-01-11T04:59:45;95385.50;;;-1.40;50.29
29197;BME280;62796;42.654;23.316;2024-01-11T05:02:10;95392.50;;;-1.43;49.97
29197;BME280;62796;42.654;23.316;2024-01-11T05:04:36;95389.78;;;-1.43;50.46
29197;BME280;62796;42.654;23.316;2024-01-11T05:07:01;95385.91;;;-1.42;50.38
29197;BME280;62796;42.654;23.316;2024-01-11T05:09:27;95385.91;;;-1.45;50.57
29197;BME280;62796;42.654;23.316;2024-01-11T05:11:52;95384.34;;;-1.46;50.28
29197;BME280;62796;42.654;23.316;2024-01-11T05:14:17;95388.63;;;-1.45;50.91
29197;BME280;62796;42.654;23.316;2024-01-11T05:16:43;95381.25;;;-1.48;50.69
29197;BME280;62796;42.654;23.316;2024-01-11T05:19:08;95379.69;;;-1.53;51.08
29197;BME280;62796;42.654;23.316;2024-01-11T05:21:34;95376.97;;;-1.53;50.25
29197;BME280;62796;42.654;23.316;2024-01-11T05:23:59;95357.56;;;-1.80;51.13
29197;BME280;62796;42.654;23.316;2024-01-11T05:26:25;95367.25;;;-1.86;51.38
29197;BME280;62796;42.654;23.316;2024-01-11T05:28:50;95374.25;;;-1.71;51.57
29197;BME280;62796;42.654;23.316;2024-01-11T05:31:16;95355.59;;;-1.76;50.99
29197;BME280;62796;42.654;23.316;2024-01-11T05:33:42;95364.16;;;-1.74;51.35
29197;BME280;62796;42.654;23.316;2024-01-11T05:36:08;95366.47;;;-1.69;51.23
29197;BME280;62796;42.654;23.316;2024-01-11T05:38:34;95359.09;;;-1.61;50.88
29197;BME280;62796;42.654;23.316;2024-01-11T05:41:00;95364.16;;;-1.56;50.52
29197;BME280;62796;42.654;23.316;2024-01-11T05:43:25;95357.97;;;-1.53;51.15
29197;BME280;62796;42.654;23.316;2024-01-11T05:45:50;95352.50;;;-1.63;51.13
29197;BME280;62796;42.654;23.316;2024-01-11T05:48:16;95357.19;;;-1.57;51.00
29197;BME280;62796;42.654;23.316;2024-01-11T05:50:42;95355.63;;;-1.69;51.55
29197;BME280;62796;42.654;23.316;2024-01-11T05:53:08;95361.81;;;-1.72;51.87
29197;BME280;62796;42.654;23.316;2024-01-11T05:55:33;95357.94;;;-1.63;51.36
29197;BME280;62796;42.654;23.316;2024-01-11T05:57:59;95332.34;;;-1.70;51.20
29197;BME280;62796;42.654;23.316;2024-01-11T06:00:24;95340.88;;;-1.60;50.98
29197;BME280;62796;42.654;23.316;2024-01-11T06:02:50;95343.59;;;-1.60;51.11
29197;BME280;62796;42.654;23.316;2024-01-11T06:05:15;95330.78;;;-1.56;51.06
29197;BME280;62796;42.654;23.316;2024-01-11T06:07:41;95345.16;;;-1.56;51.20
29197;BME280;62796;42.654;23.316;2024-01-11T06:10:07;95341.25;;;-1.51;51.12
29197;BME280;62796;42.654;23.316;2024-01-11T06:12:34;95343.22;;;-1.55;51.04
29197;BME280;62796;42.654;23.316;2024-01-11T06:14:59;95337.75;;;-1.52;50.87
29197;BME280;62796;42.654;23.316;2024-01-11T06:17:24;95342.81;;;-1.61;51.25
29197;BME280;62796;42.654;23.316;2024-01-11T06:19:50;95334.66;;;-1.57;51.07
29197;BME280;62796;42.654;23.316;2024-01-11T06:22:15;95337.38;;;-1.57;50.46
29197;BME280;62796;42.654;23.316;2024-01-11T06:24:41;95337.78;;;-1.48;50.89
29197;BME280;62796;42.654;23.316;2024-01-11T06:27:06;95343.59;;;-1.46;50.89
29197;BME280;62796;42.654;23.316;2024-01-11T06:29:32;95326.91;;;-1.45;51.27
29197;BME280;62796;42.654;23.316;2024-01-11T06:31:57;95326.09;;;-1.24;51.02
29197;BME280;62796;42.654;23.316;2024-01-11T06:34:22;95336.97;;;-1.17;50.81
29197;BME280;62796;42.654;23.316;2024-01-11T06:36:48;95305.16;;;-1.20;50.58
29197;BME280;62796;42.654;23.316;2024-01-11T06:39:13;95326.03;;;-0.85;49.99
29197;BME280;62796;42.654;23.316;2024-01-11T06:41:39;95313.13;;;-0.60;50.04
29197;BME280;62796;42.654;23.316;2024-01-11T06:44:04;95321.22;;;-0.42;49.50
29197;BME280;62796;42.654;23.316;2024-01-11T06:46:30;95302.06;;;-0.25;49.05
29197;BME280;62796;42.654;23.316;2024-01-11T06:48:56;95306.19;;;0.01;48.35
29197;BME280;62796;42.654;23.316;2024-01-11T06:51:22;95308.72;;;0.29;47.57
29197;BME280;62796;42.654;23.316;2024-01-11T06:53:48;95314.34;;;0.56;47.21
29197;BME280;62796;42.654;23.316;2024-01-11T06:56:18;95314.41;;;0.90;46.37
29197;BME280;62796;42.654;23.316;2024-01-11T06:58:44;95315.25;;;1.24;45.54
29197;BME280;62796;42.654;23.316;2024-01-11T07:01:10;95322.75;;;1.50;44.55
29197;BME280;62796;42.654;23.316;2024-01-11T07:03:37;95310.75;;;1.75;43.77
29197;BME280;62796;42.654;23.316;2024-01-11T07:06:02;95313.47;;;2.05;42.75
29197;BME280;62796;42.654;23.316;2024-01-11T07:08:29;95316.38;;;2.21;42.82
29197;BME280;62796;42.654;23.316;2024-01-11T07:10:54;95319.53;;;2.43;41.90
29197;BME280;62796;42.654;23.316;2024-01-11T07:13:20;95315.25;;;2.68;41.67
29197;BME280;62796;42.654;23.316;2024-01-11T07:15:46;95312.91;;;2.90;41.20
29197;BME280;62796;42.654;23.316;2024-01-11T07:18:12;95313.03;;;3.26;40.69
29197;BME280;62796;42.654;23.316;2024-01-11T07:20:37;95317.16;;;3.57;40.84
29197;BME280;62796;42.654;23.316;2024-01-11T07:23:03;95306.31;;;3.89;39.50
29197;BME280;62796;42.654;23.316;2024-01-11T07:25:29;95312.06;;;4.15;39.32
29197;BME280;62796;42.654;23.316;2024-01-11T07:27:55;95300.59;;;4.36;38.67
29197;BME280;62796;42.654;23.316;2024-01-11T07:30:20;95299.94;;;4.64;37.84
29197;BME280;62796;42.654;23.316;2024-01-11T07:32:46;95303.88;;;4.95;37.22
29197;BME280;62796;42.654;23.316;2024-01-11T07:35:11;95299.19;;;5.25;36.60
29197;BME280;62796;42.654;23.316;2024-01-11T07:37:38;95296.88;;;5.52;35.78
29197;BME280;62796;42.654;23.316;2024-01-11T07:40:04;95303.53;;;5.67;35.12
29197;BME280;62796;42.654;23.316;2024-01-11T07:42:29;95304.31;;;5.80;34.78
29197;BME280;62796;42.654;23.316;2024-01-11T07:44:55;95297.94;;;5.99;34.05
29197;BME280;62796;42.654;23.316;2024-01-11T07:47:20;95290.25;;;6.20;33.81
29197;BME280;62796;42.654;23.316;2024-01-11T07:49:45;95304.03;;;6.45;33.40
29197;BME280;62796;42.654;23.316;2024-01-11T07:52:11;95291.91;;;6.55;32.84
29197;BME280;62796;42.654;23.316;2024-01-11T07:54:36;95301.56;;;6.85;33.03
29197;BME280;62796;42.654;23.316;2024-01-11T07:57:03;95294.03;;;7.10;32.24
29197;BME280;62796;42.654;23.316;2024-01-11T07:59:32;95298.84;;;7.32;31.98
29197;BME280;62796;42.654;23.316;2024-01-11T08:01:58;95286.97;;;7.44;31.37
29197;BME280;62796;42.654;23.316;2024-01-11T08:04:23;95284.56;;;7.67;31.16
29197;BME280;62796;42.654;23.316;2024-01-11T08:06:48;95290.34;;;7.82;31.02
29197;BME280;62796;42.654;23.316;2024-01-11T08:09:14;95288.84;;;7.90;30.60
29197;BME280;62796;42.654;23.316;2024-01-11T08:11:39;95285.97;;;7.94;30.67
29197;BME280;62796;42.654;23.316;2024-01-11T08:14:06;95290.25;;;8.16;30.26
29197;BME280;62796;42.654;23.316;2024-01-11T08:16:32;95279.63;;;8.37;30.11
29197;BME280;62796;42.654;23.316;2024-01-11T08:18:57;95274.13;;;8.37;29.90
29197;BME280;62796;42.654;23.316;2024-01-11T08:21:23;95281.53;;;8.49;29.57
29197;BME280;62796;42.654;23.316;2024-01-11T08:23:49;95269.00;;;8.57;28.80
29197;BME280;62796;42.654;23.316;2024-01-11T08:26:15;95267.19;;;8.63;29.08
29197;BME280;62796;42.654;23.316;2024-01-11T08:28:41;95273.66;;;8.69;28.75
29197;BME280;62796;42.654;23.316;2024-01-11T08:31:07;95270.91;;;8.78;28.70
29197;BME280;62796;42.654;23.316;2024-01-11T08:33:32;95276.31;;;8.90;28.94
29197;BME280;62796;42.654;23.316;2024-01-11T08:35:58;95268.38;;;9.11;28.15
29197;BME280;62796;42.654;23.316;2024-01-11T08:38:24;95269.16;;;9.38;28.00
29197;BME280;62796;42.654;23.316;2024-01-11T08:40:49;95267.66;;;9.47;28.33
29197;BME280;62796;42.654;23.316;2024-01-11T08:43:15;95265.47;;;9.69;27.61
29197;BME280;62796;42.654;23.316;2024-01-11T08:45:40;95267.59;;;9.92;27.67
29197;BME280;62796;42.654;23.316;2024-01-11T08:48:06;95272.69;;;10.02;26.93
29197;BME280;62796;42.654;23.316;2024-01-11T08:50:31;95267.88;;;10.12;27.02
29197;BME280;62796;42.654;23.316;2024-01-11T08:52:58;95266.66;;;10.13;26.84
29197;BME280;62796;42.654;23.316;2024-01-11T08:55:23;95258.34;;;10.22;26.92
29197;BME280;62796;42.654;23.316;2024-01-11T08:57:49;95256.31;;;10.32;26.25
29197;BME280;62796;42.654;23.316;2024-01-11T09:00:14;95246.59;;;10.36;26.43
29197;BME280;62796;42.654;23.316;2024-01-11T09:02:43;95253.41;;;10.35;26.71
29197;BME280;62796;42.654;23.316;2024-01-11T09:05:09;95246.84;;;10.57;26.73
29197;BME280;62796;42.654;23.316;2024-01-11T09:07:34;95237.44;;;10.63;26.27
29197;BME280;62796;42.654;23.316;2024-01-11T09:09:59;95240.41;;;10.83;26.07
29197;BME280;62796;42.654;23.316;2024-01-11T09:12:25;95231.28;;;10.92;26.13
29197;BME280;62796;42.654;23.316;2024-01-11T09:14:50;95239.16;;;11.08;26.45
29197;BME280;62796;42.654;23.316;2024-01-11T09:17:16;95225.25;;;11.17;25.88
29197;BME280;62796;42.654;23.316;2024-01-11T09:19:41;95234.28;;;11.27;26.05
29197;BME280;62796;42.654;23.316;2024-01-11T09:22:06;95232.00;;;11.25;26.01
29197;BME280;62796;42.654;23.316;2024-01-11T09:24:35;95225.44;;;11.37;25.62
29197;BME280;62796;42.654;23.316;2024-01-11T09:27:01;95224.53;;;11.31;25.46
29197;BME280;62796;42.654;23.316;2024-01-11T09:29:26;95219.31;;;11.09;25.75
29197;BME280;62796;42.654;23.316;2024-01-11T09:31:52;95211.16;;;11.06;25.56
29197;BME280;62796;42.654;23.316;2024-01-11T09:34:18;95217.31;;;10.86;25.45
29197;BME280;62796;42.654;23.316;2024-01-11T09:36:44;95202.22;;;10.54;26.07
29197;BME280;62796;42.654;23.316;2024-01-11T09:39:10;95194.22;;;10.24;26.07
29197;BME280;62796;42.654;23.316;2024-01-11T09:41:41;95191.66;;;9.93;26.95
29197;BME280;62796;42.654;23.316;2024-01-11T09:44:11;95192.50;;;9.57;27.74
29197;BME280;62796;42.654;23.316;2024-01-11T09:46:37;95183.47;;;9.11;28.35
29197;BME280;62796;42.654;23.316;2024-01-11T09:49:03;95176.53;;;8.88;28.75
29197;BME280;62796;42.654;23.316;2024-01-11T09:51:29;95171.38;;;8.32;28.86
29197;BME280;62796;42.654;23.316;2024-01-11T09:53:55;95160.00;;;7.91;29.96
29197;BME280;62796;42.654;23.316;2024-01-11T09:56:21;95160.28;;;7.62;30.26
29197;BME280;62796;42.654;23.316;2024-01-11T09:58:49;95164.72;;;7.29;31.03
29197;BME280;62796;42.654;23.316;2024-01-11T10:01:15;95168.06;;;6.89;31.77
29197;BME280;62796;42.654;23.316;2024-01-11T10:03:41;95157.94;;;6.39;32.69
29197;BME280;62796;42.654;23.316;2024-01-11T10:06:09;95158.56;;;6.09;32.93
29197;BME280;62796;42.654;23.316;2024-01-11T10:08:35;95145.03;;;5.89;33.61
29197;BME280;62796;42.654;23.316;2024-01-11T10:11:01;95147.47;;;5.87;33.80
29197;BME280;62796;42.654;23.316;2024-01-11T10:13:29;95138.31;;;5.78;34.28
29197;BME280;62796;42.654;23.316;2024-01-11T10:16:24;95137.28;;;5.59;34.42
29197;BME280;62796;42.654;23.316;2024-01-11T10:18:49;95115.97;;;5.25;35.07
29197;BME280;62796;42.654;23.316;2024-01-11T10:21:15;95126.81;;;5.29;35.44
29197;BME280;62796;42.654;23.316;2024-01-11T10:23:41;95122.88;;;5.30;35.07
29197;BME280;62796;42.654;23.316;2024-01-11T10:26:06;95123.63;;;5.18;34.80
29197;BME280;62796;42.654;23.316;2024-01-11T10:28:35;95108.31;;;5.04;35.49
29197;BME280;62796;42.654;23.316;2024-01-11T10:31:03;95114.00;;;4.97;36.19
29197;BME280;62796;42.654;23.316;2024-01-11T10:33:33;95105.00;;;4.96;35.94
29197;BME280;62796;42.654;23.316;2024-01-11T10:36:00;95099.50;;;4.96;36.89
29197;BME280;62796;42.654;23.316;2024-01-11T10:38:25;95100.31;;;4.68;37.23
29197;BME280;62796;42.654;23.316;2024-01-11T10:40:52;95086.22;;;4.54;37.12
29197;BME280;62796;42.654;23.316;2024-01-11T10:43:21;95094.47;;;4.66;36.88
29197;BME280;62796;42.654;23.316;2024-01-11T10:45:52;95092.56;;;4.79;37.06
29197;BME280;62796;42.654;23.316;2024-01-11T10:48:24;95073.03;;;4.77;37.11
29197;BME280;62796;42.654;23.316;2024-01-11T10:50:54;95076.88;;;4.80;37.34
29197;BME280;62796;42.654;23.316;2024-01-11T10:53:46;95075.41;;;4.75;36.40
29197;BME280;62796;42.654;23.316;2024-01-11T10:56:13;95073.16;;;4.86;36.09
29197;BME280;62796;42.654;23.316;2024-01-11T10:58:42;95071.16;;;4.87;36.47
29197;BME280;62796;42.654;23.316;2024-01-11T11:01:11;95058.56;;;4.89;36.65
29197;BME280;62796;42.654;23.316;2024-01-11T11:03:37;95062.94;;;4.99;36.83
29197;BME280;62796;42.654;23.316;2024-01-11T11:06:05;95049.56;;;5.01;36.35
29197;BME280;62796;42.654;23.316;2024-01-11T11:08:33;95044.09;;;5.01;36.68
29197;BME280;62796;42.654;23.316;2024-01-11T11:11:03;95025.75;;;4.98;36.30
29197;BME280;62796;42.654;23.316;2024-01-11T11:13:33;95028.94;;;5.10;36.80
29197;BME280;62796;42.654;23.316;2024-01-11T11:16:00;95030.25;;;5.18;36.61
29197;BME280;62796;42.654;23.316;2024-01-11T11:18:28;95028.19;;;5.22;36.22
29197;BME280;62796;42.654;23.316;2024-01-11T11:20:54;95018.59;;;5.26;36.03
29197;BME280;62796;42.654;23.316;2024-01-11T11:23:19;94994.09;;;4.81;37.05
29197;BME280;62796;42.654;23.316;2024-01-11T11:25:46;95006.94;;;4.97;37.27
29197;BME280;62796;42.654;23.316;2024-01-11T11:28:13;94998.41;;;5.08;36.89
29197;BME280;62796;42.654;23.316;2024-01-11T11:30:41;95001.91;;;5.21;36.65
29197;BME280;62796;42.654;23.316;2024-01-11T11:33:10;94987.63;;;5.26;37.07
29197;BME280;62796;42.654;23.316;2024-01-11T11:35:37;94988.41;;;5.26;36.82
29197;BME280;62796;42.654;23.316;2024-01-11T11:38:03;94978.75;;;5.34;36.62
29197;BME280;62796;42.654;23.316;2024-01-11T11:40:38;94960.81;;;5.30;36.73
29197;BME280;62796;42.654;23.316;2024-01-11T11:43:08;94957.88;;;5.37;37.04
29197;BME280;62796;42.654;23.316;2024-01-11T11:45:33;94973.56;;;5.49;36.93
29197;BME280;62796;42.654;23.316;2024-01-11T11:47:59;94963.28;;;5.62;35.77
29197;BME280;62796;42.654;23.316;2024-01-11T11:50:25;94965.72;;;5.60;36.01
29197;BME280;62796;42.654;23.316;2024-01-11T11:52:54;94961.44;;;5.59;36.06
29197;BME280;62796;42.654;23.316;2024-01-11T11:55:24;94967.59;;;5.63;36.34
29197;BME280;62796;42.654;23.316;2024-01-11T11:57:52;94965.81;;;5.69;36.48
29197;BME280;62796;42.654;23.316;2024-01-11T12:00:19;94953.06;;;5.75;36.34
29197;BME280;62796;42.654;23.316;2024-01-11T12:02:49;94950.63;;;5.77;36.84
29197;BME280;62796;42.654;23.316;2024-01-11T12:05:16;94955.34;;;5.89;36.41
29197;BME280;62796;42.654;23.316;2024-01-11T12:07:42;94942.31;;;6.02;35.83
29197;BME280;62796;42.654;23.316;2024-01-11T12:10:08;94938.34;;;6.03;36.05
29197;BME280;62796;42.654;23.316;2024-01-11T12:12:35;94933.25;;;5.80;36.25
29197;BME280;62796;42.654;23.316;2024-01-11T12:15:03;94937.56;;;5.22;38.33
29197;BME280;62796;42.654;23.316;2024-01-11T12:17:28;94921.84;;;5.10;39.54
29197;BME280;62796;42.654;23.316;2024-01-11T12:19:54;94930.00;;;5.13;39.91
29197;BME280;62796;42.654;23.316;2024-01-11T12:22:19;94925.34;;;5.82;39.05
29197;BME280;62796;42.654;23.316;2024-01-11T12:24:46;94917.66;;;6.64;37.51
29197;BME280;62796;42.654;23.316;2024-01-11T12:27:11;94906.94;;;7.28;35.72
29197;BME280;62796;42.654;23.316;2024-01-11T12:29:38;94903.06;;;6.76;37.02
29197;BME280;62796;42.654;23.316;2024-01-11T12:32:04;94906.91;;;7.18;36.18
29197;BME280;62796;42.654;23.316;2024-01-11T12:34:30;94898.28;;;7.74;35.24
29197;BME280;62796;42.654;23.316;2024-01-11T12:36:56;94895.69;;;8.34;34.43
29197;BME280;62796;42.654;23.316;2024-01-11T12:39:25;94888.06;;;9.22;33.13
29197;BME280;62796;42.654;23.316;2024-01-11T12:41:54;94891.53;;;10.03;31.54
29197;BME280;62796;42.654;23.316;2024-01-11T12:44:19;94878.47;;;10.71;30.23
29197;BME280;62796;42.654;23.316;2024-01-11T12:46:47;94872.88;;;11.15;29.61
29197;BME280;62796;42.654;23.316;2024-01-11T12:49:14;94863.25;;;11.65;28.70